createdAt,value
2019-02-23T00:02:16.124Z,1.60
2019-02-23T00:05:19.962Z,1.60
2019-02-23T00:08:23.817Z,1.58
2019-02-23T00:11:27.946Z,1.55
2019-02-23T00:14:31.805Z,1.52
2019-02-23T00:17:35.782Z,1.50
2019-02-23T00:20:39.665Z,1.51
2019-02-23T00:23:43.457Z,1.50
2019-02-23T00:26:47.400Z,1.51
2019-02-23T00:29:52.779Z,1.48
2019-02-23T00:32:56.642Z,1.45
2019-02-23T00:36:00.396Z,1.45
2019-02-23T00:39:05.076Z,1.47
2019-02-23T00:42:08.870Z,1.44
2019-02-23T00:45:12.775Z,1.43
2019-02-23T00:48:16.551Z,1.42
2019-02-23T00:51:20.349Z,1.41
2019-02-23T00:54:24.239Z,1.41
2019-02-23T00:57:28.068Z,1.40
2019-02-23T01:00:31.876Z,1.42
2019-02-23T01:03:35.853Z,1.43
2019-02-23T01:06:39.821Z,1.41
2019-02-23T01:09:43.620Z,1.37
2019-02-23T01:12:47.928Z,1.34
2019-02-23T01:15:52.021Z,1.32
2019-02-23T01:18:56.085Z,1.32
2019-02-23T01:21:59.887Z,1.33
2019-02-23T01:25:11.119Z,1.30
2019-02-23T01:28:15.012Z,1.29
2019-02-23T01:31:18.850Z,1.27
2019-02-23T01:34:22.790Z,1.28
2019-02-23T01:37:26.721Z,1.26
2019-02-23T01:40:30.816Z,1.26
2019-02-23T01:43:34.759Z,1.28
2019-02-23T01:46:38.829Z,1.27
2019-02-23T01:49:43.034Z,1.33
2019-02-23T01:52:46.912Z,1.31
2019-02-23T01:55:50.782Z,1.26
2019-02-23T01:58:54.574Z,1.26
2019-02-23T02:01:58.451Z,1.24
2019-02-23T02:05:02.420Z,1.21
2019-02-23T02:08:06.392Z,1.17
2019-02-23T02:11:10.587Z,1.20
2019-02-23T02:14:14.542Z,1.15
2019-02-23T02:17:18.358Z,1.14
2019-02-23T02:20:22.181Z,1.13
2019-02-23T02:23:26.050Z,1.10
2019-02-23T02:26:29.906Z,1.12
2019-02-23T02:29:33.705Z,1.11
2019-02-23T02:32:37.603Z,1.08
2019-02-23T02:35:41.398Z,1.08
2019-02-23T02:38:45.194Z,1.08
2019-02-23T02:41:48.978Z,1.08
2019-02-23T02:44:52.828Z,1.04
2019-02-23T02:47:56.637Z,1.00
2019-02-23T02:51:00.514Z,1.01
2019-02-23T02:54:04.691Z,1.00
2019-02-23T02:57:08.559Z,1.05
2019-02-23T03:00:12.944Z,1.02
2019-02-23T03:03:16.747Z,1.02
2019-02-23T03:06:20.551Z,0.97
2019-02-23T03:09:24.344Z,0.97
2019-02-23T03:12:28.146Z,0.94
2019-02-23T03:15:32.019Z,0.93
2019-02-23T03:18:36.200Z,0.94
2019-02-23T03:21:39.982Z,0.95
2019-02-23T03:24:43.798Z,0.96
2019-02-23T03:27:47.597Z,0.91
2019-02-23T03:30:51.444Z,0.91
2019-02-23T03:33:55.301Z,0.89
2019-02-23T03:36:59.110Z,0.85
2019-02-23T03:40:02.983Z,0.77
2019-02-23T03:43:06.897Z,0.79
2019-02-23T03:46:10.863Z,0.80
2019-02-23T03:49:14.857Z,0.77
2019-02-23T03:52:19.407Z,0.76
2019-02-23T03:58:34.179Z,0.76
2019-02-23T04:02:38.165Z,0.75
2019-02-23T04:22:49.630Z,0.56
2019-02-23T04:26:17.737Z,0.58
2019-02-23T07:02:50.350Z,0.34
2019-02-23T07:39:48.628Z,0.77
2019-02-23T08:21:05.991Z,1.32
2019-02-23T08:24:10.370Z,1.41
2019-02-23T08:27:14.355Z,1.45
2019-02-23T08:30:18.419Z,1.50
2019-02-23T08:33:22.502Z,1.57
2019-02-23T08:36:36.215Z,1.69
2019-02-23T08:39:43.894Z,1.73
2019-02-23T08:42:52.108Z,1.82
2019-02-23T08:45:57.669Z,1.92
2019-02-23T08:49:04.593Z,1.98
2019-02-23T08:52:11.290Z,2.04
2019-02-23T08:55:55.595Z,2.15
2019-02-23T09:06:34.635Z,2.48
2019-02-23T09:09:39.248Z,2.53
2019-02-23T09:12:46.865Z,2.59
2019-02-23T09:15:53.400Z,2.67
2019-02-23T09:18:57.603Z,2.75
2019-02-23T09:22:02.327Z,2.78
2019-02-23T09:25:07.141Z,2.78
2019-02-23T09:28:11.664Z,2.92
2019-02-23T09:31:16.047Z,3.02
2019-02-23T09:34:20.279Z,3.18
2019-02-23T09:37:25.722Z,3.32
2019-02-23T09:40:29.793Z,3.45
2019-02-23T09:43:34.145Z,3.57
2019-02-23T09:46:38.666Z,3.73
2019-02-23T09:49:44.802Z,3.92
2019-02-23T09:53:10.742Z,3.93
2019-02-23T09:56:35.777Z,3.90
2019-02-23T09:59:44.202Z,3.90
2019-02-23T10:02:48.550Z,3.81
2019-02-23T10:05:53.870Z,3.80
2019-02-23T10:08:58.062Z,3.87
2019-02-23T10:12:01.954Z,3.99
2019-02-23T10:15:06.259Z,4.14
2019-02-23T10:18:10.077Z,4.28
2019-02-23T10:21:13.910Z,4.36
2019-02-23T10:24:17.759Z,4.37
2019-02-23T10:27:21.650Z,4.36
2019-02-23T10:30:25.550Z,4.33
2019-02-23T10:33:29.347Z,4.36
2019-02-23T10:36:33.380Z,4.53
2019-02-23T10:39:37.243Z,4.55
2019-02-23T10:42:42.744Z,4.66
2019-02-23T10:45:46.614Z,4.67
2019-02-23T10:48:50.506Z,4.69
2019-02-23T10:51:55.845Z,4.75
2019-02-23T10:54:59.687Z,4.84
2019-02-23T10:58:03.537Z,4.86
2019-02-23T11:01:07.625Z,4.92
2019-02-23T11:04:11.436Z,4.93
2019-02-23T11:07:15.357Z,5.01
2019-02-23T11:10:19.438Z,5.01
2019-02-23T11:13:23.379Z,5.10
2019-02-23T11:16:27.296Z,5.21
2019-02-23T11:19:31.259Z,5.16
2019-02-23T11:22:35.173Z,5.18
2019-02-23T11:25:39.092Z,5.32
2019-02-23T11:28:43.103Z,5.42
2019-02-23T11:31:47.020Z,5.50
2019-02-23T11:34:50.832Z,5.59
2019-02-23T11:37:54.653Z,5.65
2019-02-23T11:40:58.589Z,5.69
2019-02-23T11:44:02.401Z,5.73
2019-02-23T11:47:06.316Z,5.83
2019-02-23T11:50:10.379Z,5.83
2019-02-23T11:53:14.225Z,5.76
2019-02-23T11:56:19.110Z,5.70
2019-02-23T11:59:22.946Z,5.68
2019-02-23T12:02:26.852Z,5.75
2019-02-23T12:05:30.732Z,5.75
2019-02-23T12:08:34.642Z,5.77
2019-02-23T12:11:38.556Z,5.81
2019-02-23T12:14:42.563Z,5.87
2019-02-23T12:17:46.902Z,5.86
2019-02-23T12:20:50.888Z,5.91
2019-02-23T12:24:05.420Z,5.94
2019-02-23T12:27:00.536Z,5.94
2019-02-23T12:30:04.925Z,5.96
2019-02-23T12:33:08.789Z,5.94
2019-02-23T12:36:12.788Z,5.97
2019-02-23T12:39:16.668Z,5.99
2019-02-23T12:42:20.716Z,5.99
2019-02-23T12:45:24.544Z,6.00
2019-02-23T12:48:28.465Z,5.97
2019-02-23T12:51:32.259Z,5.96
2019-02-23T12:54:36.153Z,5.97
2019-02-23T12:57:40.041Z,5.96
2019-02-23T13:00:44.181Z,5.96
2019-02-23T13:03:48.054Z,6.02
2019-02-23T13:06:51.963Z,6.10
2019-02-23T13:09:56.228Z,6.10
2019-02-23T13:13:53.397Z,6.18
2019-02-23T13:17:28.943Z,6.29
2019-02-23T13:20:51.888Z,6.38
2019-02-23T13:24:14.980Z,6.48
2019-02-23T13:28:10.482Z,6.60
2019-02-23T13:31:37.505Z,6.66
2019-02-23T13:35:23.146Z,6.67
2019-02-23T13:38:54.779Z,6.69
2019-02-23T13:42:34.552Z,6.76
2019-02-23T13:45:55.506Z,6.74
2019-02-23T13:49:34.468Z,6.74
2019-02-23T13:53:03.498Z,6.75
2019-02-23T13:56:37.761Z,6.78
2019-02-23T14:00:02.274Z,6.77
2019-02-23T14:03:37.278Z,6.76
2019-02-23T14:07:31.439Z,6.80
2019-02-23T14:11:03.842Z,6.84
2019-02-23T14:14:51.916Z,6.87
2019-02-23T14:18:10.347Z,6.92
2019-02-23T14:21:51.235Z,7.06
2019-02-23T14:25:42.234Z,7.11
2019-02-23T14:29:26.943Z,7.16
2019-02-23T14:32:59.449Z,7.19
2019-02-23T14:36:14.899Z,7.24
2019-02-23T14:39:56.861Z,7.26
2019-02-23T14:43:48.049Z,7.30
2019-02-23T14:47:34.809Z,7.33
2019-02-23T14:51:05.894Z,7.34
2019-02-23T14:54:26.926Z,7.32
2019-02-23T14:58:13.528Z,7.34
2019-02-23T15:01:37.816Z,7.31
2019-02-23T15:05:25.589Z,7.31
2019-02-23T15:09:05.032Z,7.30
2019-02-23T15:12:49.540Z,7.27
2019-02-23T15:16:45.770Z,7.27
2019-02-23T15:20:23.742Z,7.23
2019-02-23T15:23:54.107Z,7.20
2019-02-23T15:27:52.843Z,7.20
2019-02-23T15:31:27.634Z,7.18
2019-02-23T15:35:17.807Z,7.18
2019-02-23T15:39:09.433Z,7.14
2019-02-23T15:42:45.617Z,7.08
2019-02-23T15:46:11.150Z,7.08
2019-02-23T15:49:32.125Z,7.07
2019-02-23T15:52:36.089Z,7.08
2019-02-23T15:55:40.038Z,7.08
2019-02-23T15:58:43.950Z,7.09
2019-02-23T16:01:48.029Z,7.07
2019-02-23T16:04:52.854Z,7.05
2019-02-23T16:07:56.847Z,7.02
2019-02-23T16:11:00.742Z,7.01
2019-02-23T16:14:04.709Z,6.99
2019-02-23T16:17:08.638Z,6.93
2019-02-23T16:20:12.539Z,6.87
2019-02-23T16:23:16.426Z,6.82
2019-02-23T16:26:20.420Z,6.76
2019-02-23T16:29:24.446Z,6.71
2019-02-23T16:32:28.257Z,6.64
2019-02-23T16:35:32.237Z,6.58
2019-02-23T16:38:36.149Z,6.51
2019-02-23T16:41:40.191Z,6.44
2019-02-23T16:44:44.087Z,6.38
2019-02-23T16:47:48.327Z,6.32
2019-02-23T16:50:52.230Z,6.24
2019-02-23T16:53:56.062Z,6.16
2019-02-23T16:56:59.892Z,6.08
2019-02-23T17:00:03.834Z,6.00
2019-02-23T17:03:10.803Z,5.93
2019-02-23T17:06:14.760Z,5.84
2019-02-23T17:09:18.691Z,5.77
2019-02-23T17:12:22.670Z,5.69
2019-02-23T17:15:26.811Z,5.62
2019-02-23T17:18:30.642Z,5.53
2019-02-23T17:21:34.510Z,5.47
2019-02-23T17:24:38.505Z,5.38
2019-02-23T17:27:42.413Z,5.30
2019-02-23T17:31:02.137Z,5.24
2019-02-23T17:34:12.361Z,5.15
2019-02-23T17:37:18.525Z,5.06
2019-02-23T17:40:30.170Z,5.00
2019-02-23T17:43:34.868Z,4.90
2019-02-23T17:46:54.539Z,4.82
2019-02-23T17:50:07.512Z,4.75
2019-02-23T17:54:06.066Z,4.74
2019-02-23T17:57:12.768Z,4.69
2019-02-23T18:00:18.914Z,4.63
2019-02-23T18:03:22.926Z,4.57
2019-02-23T18:06:26.783Z,4.49
2019-02-23T18:09:30.749Z,4.44
2019-02-23T18:12:35.529Z,4.40
2019-02-23T18:15:40.001Z,4.37
2019-02-23T18:18:44.202Z,4.34
2019-02-23T18:21:48.462Z,4.28
2019-02-23T18:24:52.260Z,4.23
2019-02-23T18:27:56.067Z,4.20
2019-02-23T18:31:00.002Z,4.18
2019-02-23T18:34:03.898Z,4.17
2019-02-23T18:37:07.720Z,4.16
2019-02-23T18:40:11.592Z,4.14
2019-02-23T18:43:15.408Z,4.11
2019-02-23T18:46:19.347Z,4.08
2019-02-23T18:49:23.202Z,4.03
2019-02-23T18:52:27.030Z,4.02
2019-02-23T18:55:40.668Z,4.01
2019-02-23T18:58:39.256Z,4.01
2019-02-23T19:01:43.170Z,3.97
2019-02-23T19:04:47.037Z,3.94
2019-02-23T19:07:50.940Z,3.93
2019-02-23T19:10:55.857Z,3.93
2019-02-23T19:13:59.745Z,3.91
2019-02-23T19:17:03.763Z,3.91
2019-02-23T19:20:10.135Z,3.90
2019-02-23T19:23:14.026Z,3.87
2019-02-23T19:26:17.936Z,3.86
2019-02-23T19:29:21.909Z,3.83
2019-02-23T19:32:25.780Z,3.82
2019-02-23T19:35:29.720Z,3.76
2019-02-23T19:38:33.622Z,3.75
2019-02-23T19:41:37.510Z,3.71
2019-02-23T19:44:41.374Z,3.69
2019-02-23T19:47:45.263Z,3.65
2019-02-23T19:50:52.582Z,3.63
2019-02-23T19:53:58.267Z,3.60
2019-02-23T19:57:02.274Z,3.56
2019-02-23T20:00:06.531Z,3.49
2019-02-23T20:03:10.491Z,3.47
2019-02-23T20:06:14.358Z,3.43
2019-02-23T20:09:18.289Z,3.41
2019-02-23T20:12:22.221Z,3.37
2019-02-23T20:15:26.227Z,3.36
2019-02-23T20:18:30.181Z,3.35
2019-02-23T20:21:34.110Z,3.32
2019-02-23T20:24:38.042Z,3.31
2019-02-23T20:27:42.129Z,3.29
2019-02-23T20:30:46.161Z,3.28
2019-02-23T20:33:50.084Z,3.28
2019-02-23T20:36:54.257Z,3.24
2019-02-23T20:40:02.175Z,3.19
2019-02-23T20:43:06.372Z,3.13
2019-02-23T20:46:11.704Z,3.04
2019-02-23T20:49:16.129Z,2.97
2019-02-23T20:52:20.771Z,2.92
2019-02-23T20:55:24.702Z,2.84
2019-02-23T20:58:28.862Z,2.80
2019-02-23T21:01:33.154Z,2.74
2019-02-23T21:04:40.185Z,2.70
2019-02-23T21:07:44.072Z,2.67
2019-02-23T21:10:48.186Z,2.62
2019-02-23T21:13:52.061Z,2.58
2019-02-23T21:16:56.188Z,2.55
2019-02-23T21:20:00.232Z,2.51
2019-02-23T21:23:04.828Z,2.43
2019-02-23T21:26:08.731Z,2.38
2019-02-23T21:29:14.623Z,2.36
2019-02-23T21:32:21.329Z,2.33
2019-02-23T21:35:25.156Z,2.26
2019-02-23T21:38:34.962Z,2.18
2019-02-23T21:41:38.954Z,2.12
2019-02-23T21:44:43.086Z,2.09
2019-02-23T21:47:48.681Z,2.09
2019-02-23T21:50:52.633Z,2.06
2019-02-23T21:53:56.705Z,2.03
2019-02-23T21:57:00.542Z,2.00
2019-02-23T22:00:04.772Z,1.97
2019-02-23T22:03:08.837Z,1.95
2019-02-23T22:06:12.986Z,1.90
2019-02-23T22:09:16.973Z,1.85
2019-02-23T22:12:20.986Z,1.82
2019-02-23T22:15:24.835Z,1.78
2019-02-23T22:18:28.931Z,1.81
2019-02-23T22:21:37.339Z,1.80
2019-02-23T22:24:44.163Z,1.76
2019-02-23T22:27:48.088Z,1.74
2019-02-23T22:30:51.884Z,1.74
2019-02-23T22:33:55.708Z,1.71
2019-02-23T22:36:59.537Z,1.69
2019-02-23T22:40:03.442Z,1.69
2019-02-23T22:43:07.537Z,1.73
2019-02-23T22:46:11.555Z,1.77
2019-02-23T22:49:15.553Z,1.82
2019-02-23T22:52:20.746Z,1.83
2019-02-23T22:55:24.642Z,1.83
2019-02-23T22:58:28.576Z,1.82
2019-02-23T23:01:32.540Z,1.78
2019-02-23T23:04:36.418Z,1.78
2019-02-23T23:07:40.271Z,1.78
2019-02-23T23:10:47.183Z,1.78
2019-02-23T23:13:51.013Z,1.80
2019-02-23T23:16:54.851Z,1.80
2019-02-23T23:19:58.676Z,1.78
2019-02-23T23:23:02.495Z,1.77
2019-02-23T23:26:06.410Z,1.78
2019-02-23T23:29:10.205Z,1.78
2019-02-23T23:32:14.028Z,1.79
2019-02-23T23:35:17.858Z,1.74
2019-02-23T23:38:21.728Z,1.70
2019-02-23T23:41:25.542Z,1.64
2019-02-23T23:44:29.364Z,1.60
2019-02-23T23:47:33.174Z,1.59
2019-02-23T23:50:37.042Z,1.54
2019-02-23T23:53:40.845Z,1.47
2019-02-23T23:56:44.645Z,1.45
2019-02-23T23:59:48.573Z,1.40
